sensor_id;sensor_type;location;lat;lon;timestamp;P1;durP1;ratioP1;P2;durP2;ratioP2
10246;SDS011;5168;47.854;7.944;2023-05-07T00:01:49;2.97;;;2.27;;
10246;SDS011;5168;47.854;7.944;2023-05-07T00:04:15;2.60;;;2.10;;
10246;SDS011;5168;47.854;7.944;2023-05-07T00:06:41;3.97;;;2.33;;
10246;SDS011;5168;47.854;7.944;2023-05-07T00:09:07;2.70;;;2.23;;
10246;SDS011;5168;47.854;7.944;2023-05-07T00:11:32;2.40;;;2.20;;
10246;SDS011;5168;47.854;7.944;2023-05-07T00:13:58;3.90;;;2.80;;
10246;SDS011;5168;47.854;7.944;2023-05-07T00:16:24;4.17;;;2.70;;
10246;SDS011;5168;47.854;7.944;2023-05-07T00:18:49;2.60;;;2.40;;
10246;SDS011;5168;47.854;7.944;2023-05-07T00:21:15;2.60;;;2.40;;
10246;SDS011;5168;47.854;7.944;2023-05-07T00:23:41;2.83;;;2.50;;
10246;SDS011;5168;47.854;7.944;2023-05-07T00:26:07;2.60;;;2.40;;
10246;SDS011;5168;47.854;7.944;2023-05-07T00:28:33;2.97;;;2.50;;
10246;SDS011;5168;47.854;7.944;2023-05-07T00:30:59;4.37;;;2.60;;
10246;SDS011;5168;47.854;7.944;2023-05-07T00:33:25;2.77;;;2.30;;
10246;SDS011;5168;47.854;7.944;2023-05-07T00:35:51;2.63;;;2.43;;
10246;SDS011;5168;47.854;7.944;2023-05-07T00:38:19;3.57;;;2.63;;
10246;SDS011;5168;47.854;7.944;2023-05-07T00:40:44;2.60;;;2.37;;
10246;SDS011;5168;47.854;7.944;2023-05-07T00:43:10;3.07;;;2.50;;
10246;SDS011;5168;47.854;7.944;2023-05-07T00:45:37;2.67;;;2.47;;
10246;SDS011;5168;47.854;7.944;2023-05-07T00:48:03;3.30;;;2.50;;
10246;SDS011;5168;47.854;7.944;2023-05-07T00:50:29;2.40;;;2.20;;
10246;SDS011;5168;47.854;7.944;2023-05-07T00:52:56;2.83;;;2.20;;
10246;SDS011;5168;47.854;7.944;2023-05-07T00:55:22;2.40;;;2.20;;
10246;SDS011;5168;47.854;7.944;2023-05-07T00:57:48;3.10;;;2.80;;
10246;SDS011;5168;47.854;7.944;2023-05-07T01:00:15;2.80;;;2.43;;
10246;SDS011;5168;47.854;7.944;2023-05-07T01:02:42;3.50;;;2.57;;
10246;SDS011;5168;47.854;7.944;2023-05-07T01:05:08;3.70;;;2.80;;
10246;SDS011;5168;47.854;7.944;2023-05-07T01:07:36;3.50;;;2.70;;
10246;SDS011;5168;47.854;7.944;2023-05-07T01:10:04;3.40;;;2.50;;
10246;SDS011;5168;47.854;7.944;2023-05-07T01:12:31;3.93;;;2.93;;
10246;SDS011;5168;47.854;7.944;2023-05-07T01:14:57;3.57;;;2.70;;
10246;SDS011;5168;47.854;7.944;2023-05-07T01:17:23;2.50;;;2.30;;
10246;SDS011;5168;47.854;7.944;2023-05-07T01:19:49;2.60;;;2.40;;
10246;SDS011;5168;47.854;7.944;2023-05-07T01:22:15;4.90;;;2.67;;
10246;SDS011;5168;47.854;7.944;2023-05-07T01:24:45;2.80;;;2.60;;
10246;SDS011;5168;47.854;7.944;2023-05-07T01:27:10;4.30;;;2.80;;
10246;SDS011;5168;47.854;7.944;2023-05-07T01:29:36;2.93;;;2.50;;
10246;SDS011;5168;47.854;7.944;2023-05-07T01:32:02;2.63;;;2.43;;
10246;SDS011;5168;47.854;7.944;2023-05-07T01:34:30;3.10;;;2.80;;
10246;SDS011;5168;47.854;7.944;2023-05-07T01:36:57;3.17;;;2.57;;
10246;SDS011;5168;47.854;7.944;2023-05-07T01:39:24;2.70;;;2.30;;
10246;SDS011;5168;47.854;7.944;2023-05-07T01:41:52;2.73;;;2.53;;
10246;SDS011;5168;47.854;7.944;2023-05-07T01:44:20;3.33;;;2.60;;
10246;SDS011;5168;47.854;7.944;2023-05-07T01:46:46;2.80;;;2.60;;
10246;SDS011;5168;47.854;7.944;2023-05-07T01:49:13;3.23;;;2.70;;
10246;SDS011;5168;47.854;7.944;2023-05-07T01:51:39;2.70;;;2.50;;
10246;SDS011;5168;47.854;7.944;2023-05-07T01:54:05;3.13;;;2.83;;
10246;SDS011;5168;47.854;7.944;2023-05-07T01:56:31;3.37;;;2.77;;
10246;SDS011;5168;47.854;7.944;2023-05-07T01:58:57;2.60;;;2.40;;
10246;SDS011;5168;47.854;7.944;2023-05-07T02:01:22;2.63;;;2.43;;
10246;SDS011;5168;47.854;7.944;2023-05-07T02:03:48;3.97;;;3.10;;
10246;SDS011;5168;47.854;7.944;2023-05-07T02:06:14;3.30;;;2.90;;
10246;SDS011;5168;47.854;7.944;2023-05-07T02:08:40;2.97;;;2.70;;
10246;SDS011;5168;47.854;7.944;2023-05-07T02:11:05;3.53;;;3.00;;
10246;SDS011;5168;47.854;7.944;2023-05-07T02:13:32;3.13;;;2.90;;
10246;SDS011;5168;47.854;7.944;2023-05-07T02:15:59;3.13;;;2.93;;
10246;SDS011;5168;47.854;7.944;2023-05-07T02:18:25;2.80;;;2.60;;
10246;SDS011;5168;47.854;7.944;2023-05-07T02:20:51;2.57;;;2.37;;
10246;SDS011;5168;47.854;7.944;2023-05-07T02:23:16;3.93;;;3.20;;
10246;SDS011;5168;47.854;7.944;2023-05-07T02:25:42;2.93;;;2.70;;
10246;SDS011;5168;47.854;7.944;2023-05-07T02:28:08;2.83;;;2.50;;
10246;SDS011;5168;47.854;7.944;2023-05-07T02:30:33;2.87;;;2.60;;
10246;SDS011;5168;47.854;7.944;2023-05-07T02:32:59;3.70;;;2.77;;
10246;SDS011;5168;47.854;7.944;2023-05-07T02:35:25;3.27;;;2.87;;
10246;SDS011;5168;47.854;7.944;2023-05-07T02:37:51;3.67;;;3.10;;
10246;SDS011;5168;47.854;7.944;2023-05-07T02:40:17;5.03;;;3.77;;
10246;SDS011;5168;47.854;7.944;2023-05-07T02:42:42;3.93;;;3.20;;
10246;SDS011;5168;47.854;7.944;2023-05-07T02:45:08;4.17;;;3.73;;
10246;SDS011;5168;47.854;7.944;2023-05-07T02:47:34;4.33;;;3.27;;
10246;SDS011;5168;47.854;7.944;2023-05-07T02:50:00;3.63;;;3.23;;
10246;SDS011;5168;47.854;7.944;2023-05-07T02:52:26;4.20;;;3.63;;
10246;SDS011;5168;47.854;7.944;2023-05-07T02:54:52;4.00;;;3.10;;
10246;SDS011;5168;47.854;7.944;2023-05-07T02:57:17;3.10;;;2.80;;
10246;SDS011;5168;47.854;7.944;2023-05-07T02:59:43;3.33;;;3.03;;
10246;SDS011;5168;47.854;7.944;2023-05-07T03:02:08;4.37;;;3.03;;
10246;SDS011;5168;47.854;7.944;2023-05-07T03:04:35;2.70;;;2.50;;
10246;SDS011;5168;47.854;7.944;2023-05-07T03:07:01;2.77;;;2.53;;
10246;SDS011;5168;47.854;7.944;2023-05-07T03:09:27;3.37;;;2.97;;
10246;SDS011;5168;47.854;7.944;2023-05-07T03:11:52;4.27;;;3.20;;
10246;SDS011;5168;47.854;7.944;2023-05-07T03:14:18;4.00;;;3.10;;
10246;SDS011;5168;47.854;7.944;2023-05-07T03:16:44;4.30;;;3.10;;
10246;SDS011;5168;47.854;7.944;2023-05-07T03:19:09;4.33;;;3.70;;
10246;SDS011;5168;47.854;7.944;2023-05-07T03:21:35;3.33;;;3.03;;
10246;SDS011;5168;47.854;7.944;2023-05-07T03:24:01;3.70;;;2.90;;
10246;SDS011;5168;47.854;7.944;2023-05-07T03:26:26;2.90;;;2.70;;
10246;SDS011;5168;47.854;7.944;2023-05-07T03:28:52;3.53;;;3.00;;
10246;SDS011;5168;47.854;7.944;2023-05-07T03:31:18;3.80;;;2.87;;
10246;SDS011;5168;47.854;7.944;2023-05-07T03:33:50;3.00;;;2.80;;
10246;SDS011;5168;47.854;7.944;2023-05-07T03:36:17;3.97;;;3.00;;
10246;SDS011;5168;47.854;7.944;2023-05-07T03:38:43;3.53;;;3.23;;
10246;SDS011;5168;47.854;7.944;2023-05-07T03:41:08;3.60;;;3.30;;
10246;SDS011;5168;47.854;7.944;2023-05-07T03:43:34;3.37;;;3.07;;
10246;SDS011;5168;47.854;7.944;2023-05-07T03:46:00;3.57;;;3.27;;
10246;SDS011;5168;47.854;7.944;2023-05-07T03:48:25;3.00;;;2.80;;
10246;SDS011;5168;47.854;7.944;2023-05-07T03:50:51;3.10;;;2.80;;
10246;SDS011;5168;47.854;7.944;2023-05-07T03:53:17;3.50;;;3.03;;
10246;SDS011;5168;47.854;7.944;2023-05-07T03:55:42;3.93;;;3.53;;
10246;SDS011;5168;47.854;7.944;2023-05-07T03:58:08;4.07;;;3.30;;
10246;SDS011;5168;47.854;7.944;2023-05-07T04:00:33;2.97;;;2.77;;
10246;SDS011;5168;47.854;7.944;2023-05-07T04:03:03;2.90;;;2.70;;
10246;SDS011;5168;47.854;7.944;2023-05-07T04:05:29;3.80;;;2.90;;
10246;SDS011;5168;47.854;7.944;2023-05-07T04:07:55;2.80;;;2.60;;
10246;SDS011;5168;47.854;7.944;2023-05-07T04:10:21;4.60;;;4.20;;
10246;SDS011;5168;47.854;7.944;2023-05-07T04:12:46;4.43;;;4.00;;
10246;SDS011;5168;47.854;7.944;2023-05-07T04:15:12;4.00;;;3.70;;
10246;SDS011;5168;47.854;7.944;2023-05-07T04:17:38;42.10;;;17.87;;
10246;SDS011;5168;47.854;7.944;2023-05-07T04:20:04;46.97;;;20.37;;
10246;SDS011;5168;47.854;7.944;2023-05-07T04:22:32;36.53;;;17.23;;
10246;SDS011;5168;47.854;7.944;2023-05-07T04:24:57;24.63;;;11.83;;
10246;SDS011;5168;47.854;7.944;2023-05-07T04:27:23;18.33;;;9.93;;
10246;SDS011;5168;47.854;7.944;2023-05-07T04:29:48;9.27;;;5.90;;
10246;SDS011;5168;47.854;7.944;2023-05-07T04:32:14;5.43;;;4.00;;
10246;SDS011;5168;47.854;7.944;2023-05-07T04:34:40;4.60;;;3.77;;
10246;SDS011;5168;47.854;7.944;2023-05-07T04:37:05;4.53;;;3.20;;
10246;SDS011;5168;47.854;7.944;2023-05-07T04:39:32;4.10;;;3.70;;
10246;SDS011;5168;47.854;7.944;2023-05-07T04:42:00;4.00;;;3.43;;
10246;SDS011;5168;47.854;7.944;2023-05-07T04:44:25;3.60;;;3.30;;
10246;SDS011;5168;47.854;7.944;2023-05-07T04:46:52;3.57;;;3.27;;
10246;SDS011;5168;47.854;7.944;2023-05-07T04:49:17;2.97;;;2.67;;
10246;SDS011;5168;47.854;7.944;2023-05-07T04:51:43;3.63;;;3.00;;
10246;SDS011;5168;47.854;7.944;2023-05-07T04:54:09;3.63;;;3.10;;
10246;SDS011;5168;47.854;7.944;2023-05-07T04:56:34;4.93;;;3.70;;
10246;SDS011;5168;47.854;7.944;2023-05-07T04:59:00;4.50;;;4.10;;
10246;SDS011;5168;47.854;7.944;2023-05-07T05:01:26;4.07;;;3.03;;
10246;SDS011;5168;47.854;7.944;2023-05-07T05:03:52;3.30;;;3.10;;
10246;SDS011;5168;47.854;7.944;2023-05-07T05:06:18;3.50;;;3.20;;
10246;SDS011;5168;47.854;7.944;2023-05-07T05:08:43;3.10;;;2.90;;
10246;SDS011;5168;47.854;7.944;2023-05-07T05:11:09;3.10;;;2.90;;
10246;SDS011;5168;47.854;7.944;2023-05-07T05:13:34;3.57;;;3.37;;
10246;SDS011;5168;47.854;7.944;2023-05-07T05:16:00;3.20;;;3.00;;
10246;SDS011;5168;47.854;7.944;2023-05-07T05:18:26;3.40;;;3.10;;
10246;SDS011;5168;47.854;7.944;2023-05-07T05:20:51;2.90;;;2.70;;
10246;SDS011;5168;47.854;7.944;2023-05-07T05:23:17;3.47;;;3.17;;
10246;SDS011;5168;47.854;7.944;2023-05-07T05:25:43;3.27;;;2.97;;
10246;SDS011;5168;47.854;7.944;2023-05-07T05:28:09;3.40;;;3.10;;
10246;SDS011;5168;47.854;7.944;2023-05-07T05:30:34;3.40;;;3.10;;
10246;SDS011;5168;47.854;7.944;2023-05-07T05:33:00;3.73;;;3.37;;
10246;SDS011;5168;47.854;7.944;2023-05-07T05:35:26;3.90;;;3.30;;
10246;SDS011;5168;47.854;7.944;2023-05-07T05:37:51;2.60;;;2.40;;
10246;SDS011;5168;47.854;7.944;2023-05-07T05:40:17;3.23;;;2.93;;
10246;SDS011;5168;47.854;7.944;2023-05-07T05:42:42;4.93;;;4.13;;
10246;SDS011;5168;47.854;7.944;2023-05-07T05:45:08;3.87;;;3.57;;
10246;SDS011;5168;47.854;7.944;2023-05-07T05:47:34;4.60;;;3.47;;
10246;SDS011;5168;47.854;7.944;2023-05-07T05:50:00;4.23;;;3.83;;
10246;SDS011;5168;47.854;7.944;2023-05-07T05:52:26;3.53;;;3.00;;
10246;SDS011;5168;47.854;7.944;2023-05-07T05:54:53;3.33;;;3.00;;
10246;SDS011;5168;47.854;7.944;2023-05-07T05:57:18;3.20;;;2.90;;
10246;SDS011;5168;47.854;7.944;2023-05-07T05:59:44;3.30;;;3.00;;
10246;SDS011;5168;47.854;7.944;2023-05-07T06:02:11;4.13;;;3.43;;
10246;SDS011;5168;47.854;7.944;2023-05-07T06:04:37;3.87;;;3.47;;
10246;SDS011;5168;47.854;7.944;2023-05-07T06:07:02;3.63;;;3.27;;
10246;SDS011;5168;47.854;7.944;2023-05-07T06:09:28;4.80;;;3.10;;
10246;SDS011;5168;47.854;7.944;2023-05-07T06:11:53;3.67;;;3.27;;
10246;SDS011;5168;47.854;7.944;2023-05-07T06:14:19;3.20;;;2.90;;
10246;SDS011;5168;47.854;7.944;2023-05-07T06:16:44;3.07;;;2.77;;
10246;SDS011;5168;47.854;7.944;2023-05-07T06:19:10;4.93;;;3.30;;
10246;SDS011;5168;47.854;7.944;2023-05-07T06:21:36;3.40;;;2.93;;
10246;SDS011;5168;47.854;7.944;2023-05-07T06:24:02;4.03;;;2.60;;
10246;SDS011;5168;47.854;7.944;2023-05-07T06:26:28;2.93;;;2.50;;
10246;SDS011;5168;47.854;7.944;2023-05-07T06:28:53;2.60;;;2.40;;
10246;SDS011;5168;47.854;7.944;2023-05-07T06:31:19;3.40;;;2.60;;
10246;SDS011;5168;47.854;7.944;2023-05-07T06:33:48;2.83;;;2.20;;
10246;SDS011;5168;47.854;7.944;2023-05-07T06:36:14;3.00;;;2.67;;
10246;SDS011;5168;47.854;7.944;2023-05-07T06:38:40;3.27;;;2.60;;
10246;SDS011;5168;47.854;7.944;2023-05-07T06:41:06;3.33;;;2.40;;
10246;SDS011;5168;47.854;7.944;2023-05-07T06:43:32;2.47;;;2.10;;
10246;SDS011;5168;47.854;7.944;2023-05-07T06:45:57;2.53;;;2.20;;
10246;SDS011;5168;47.854;7.944;2023-05-07T06:48:23;3.77;;;2.40;;
10246;SDS011;5168;47.854;7.944;2023-05-07T06:50:49;2.43;;;2.23;;
10246;SDS011;5168;47.854;7.944;2023-05-07T06:53:15;2.07;;;1.90;;
10246;SDS011;5168;47.854;7.944;2023-05-07T06:55:41;4.03;;;2.40;;
10246;SDS011;5168;47.854;7.944;2023-05-07T06:58:07;2.57;;;2.37;;
10246;SDS011;5168;47.854;7.944;2023-05-07T07:00:32;3.77;;;2.63;;
10246;SDS011;5168;47.854;7.944;2023-05-07T07:02:58;2.70;;;2.50;;
10246;SDS011;5168;47.854;7.944;2023-05-07T07:05:24;3.33;;;2.50;;
10246;SDS011;5168;47.854;7.944;2023-05-07T07:07:50;3.70;;;2.70;;
10246;SDS011;5168;47.854;7.944;2023-05-07T07:10:19;2.50;;;2.30;;
10246;SDS011;5168;47.854;7.944;2023-05-07T07:12:45;4.07;;;2.60;;
10246;SDS011;5168;47.854;7.944;2023-05-07T07:15:11;6.33;;;2.80;;
10246;SDS011;5168;47.854;7.944;2023-05-07T07:17:36;3.70;;;2.60;;
10246;SDS011;5168;47.854;7.944;2023-05-07T07:20:02;3.00;;;2.70;;
10246;SDS011;5168;47.854;7.944;2023-05-07T07:22:28;5.50;;;2.63;;
10246;SDS011;5168;47.854;7.944;2023-05-07T07:24:54;2.70;;;2.50;;
10246;SDS011;5168;47.854;7.944;2023-05-07T07:27:20;3.07;;;2.57;;
10246;SDS011;5168;47.854;7.944;2023-05-07T07:29:45;3.90;;;2.93;;
10246;SDS011;5168;47.854;7.944;2023-05-07T07:32:11;2.50;;;2.30;;
10246;SDS011;5168;47.854;7.944;2023-05-07T07:34:37;4.23;;;2.73;;
10246;SDS011;5168;47.854;7.944;2023-05-07T07:37:03;2.77;;;2.37;;
10246;SDS011;5168;47.854;7.944;2023-05-07T07:39:31;3.60;;;2.90;;
10246;SDS011;5168;47.854;7.944;2023-05-07T07:41:57;3.37;;;2.60;;
10246;SDS011;5168;47.854;7.944;2023-05-07T07:44:22;3.63;;;2.70;;
10246;SDS011;5168;47.854;7.944;2023-05-07T07:46:48;3.00;;;2.70;;
10246;SDS011;5168;47.854;7.944;2023-05-07T07:49:14;2.87;;;2.43;;
10246;SDS011;5168;47.854;7.944;2023-05-07T07:51:40;3.43;;;2.80;;
10246;SDS011;5168;47.854;7.944;2023-05-07T07:54:06;3.53;;;2.50;;
10246;SDS011;5168;47.854;7.944;2023-05-07T07:56:32;3.07;;;2.50;;
10246;SDS011;5168;47.854;7.944;2023-05-07T07:58:58;6.07;;;2.40;;
10246;SDS011;5168;47.854;7.944;2023-05-07T08:01:24;3.13;;;2.47;;
10246;SDS011;5168;47.854;7.944;2023-05-07T08:03:51;5.67;;;2.70;;
10246;SDS011;5168;47.854;7.944;2023-05-07T08:06:17;3.47;;;2.40;;
10246;SDS011;5168;47.854;7.944;2023-05-07T08:08:42;3.27;;;2.20;;
10246;SDS011;5168;47.854;7.944;2023-05-07T08:11:08;3.93;;;2.60;;
10246;SDS011;5168;47.854;7.944;2023-05-07T08:13:34;5.40;;;2.47;;
10246;SDS011;5168;47.854;7.944;2023-05-07T08:15:59;4.43;;;2.50;;
10246;SDS011;5168;47.854;7.944;2023-05-07T08:18:25;4.37;;;2.53;;
10246;SDS011;5168;47.854;7.944;2023-05-07T08:20:53;2.43;;;2.23;;
10246;SDS011;5168;47.854;7.944;2023-05-07T08:23:19;5.37;;;2.40;;
10246;SDS011;5168;47.854;7.944;2023-05-07T08:25:44;3.10;;;2.30;;
10246;SDS011;5168;47.854;7.944;2023-05-07T08:28:10;3.40;;;2.23;;
10246;SDS011;5168;47.854;7.944;2023-05-07T08:30:35;2.60;;;2.40;;
10246;SDS011;5168;47.854;7.944;2023-05-07T08:33:01;4.77;;;2.80;;
10246;SDS011;5168;47.854;7.944;2023-05-07T08:35:27;2.37;;;2.17;;
10246;SDS011;5168;47.854;7.944;2023-05-07T08:37:53;3.50;;;2.20;;
10246;SDS011;5168;47.854;7.944;2023-05-07T08:40:19;2.40;;;2.20;;
10246;SDS011;5168;47.854;7.944;2023-05-07T08:42:45;4.10;;;2.60;;
10246;SDS011;5168;47.854;7.944;2023-05-07T08:45:13;2.53;;;2.17;;
10246;SDS011;5168;47.854;7.944;2023-05-07T08:47:42;3.30;;;2.20;;
10246;SDS011;5168;47.854;7.944;2023-05-07T08:50:10;3.23;;;2.43;;
10246;SDS011;5168;47.854;7.944;2023-05-07T08:52:36;2.53;;;2.20;;
10246;SDS011;5168;47.854;7.944;2023-05-07T08:55:02;2.27;;;2.07;;
10246;SDS011;5168;47.854;7.944;2023-05-07T08:57:28;4.70;;;2.40;;
10246;SDS011;5168;47.854;7.944;2023-05-07T08:59:54;3.23;;;2.43;;
10246;SDS011;5168;47.854;7.944;2023-05-07T09:02:20;2.47;;;2.27;;
10246;SDS011;5168;47.854;7.944;2023-05-07T09:04:45;2.80;;;2.50;;
10246;SDS011;5168;47.854;7.944;2023-05-07T09:07:11;3.97;;;2.23;;
10246;SDS011;5168;47.854;7.944;2023-05-07T09:09:37;4.07;;;2.43;;
10246;SDS011;5168;47.854;7.944;2023-05-07T09:12:03;3.70;;;2.60;;
10246;SDS011;5168;47.854;7.944;2023-05-07T09:14:29;5.37;;;2.23;;
10246;SDS011;5168;47.854;7.944;2023-05-07T09:16:55;3.20;;;2.10;;
10246;SDS011;5168;47.854;7.944;2023-05-07T09:19:24;3.40;;;2.43;;
10246;SDS011;5168;47.854;7.944;2023-05-07T09:21:57;2.60;;;2.20;;
10246;SDS011;5168;47.854;7.944;2023-05-07T09:24:31;3.63;;;2.13;;
10246;SDS011;5168;47.854;7.944;2023-05-07T09:27:02;4.03;;;2.40;;
10246;SDS011;5168;47.854;7.944;2023-05-07T09:29:29;2.47;;;2.03;;
10246;SDS011;5168;47.854;7.944;2023-05-07T09:32:00;2.30;;;2.10;;
10246;SDS011;5168;47.854;7.944;2023-05-07T09:34:30;2.30;;;2.10;;
10246;SDS011;5168;47.854;7.944;2023-05-07T09:36:56;3.30;;;2.47;;
10246;SDS011;5168;47.854;7.944;2023-05-07T09:39:41;3.80;;;2.20;;
10246;SDS011;5168;47.854;7.944;2023-05-07T09:42:08;4.33;;;2.20;;
10246;SDS011;5168;47.854;7.944;2023-05-07T09:44:34;2.63;;;2.43;;
10246;SDS011;5168;47.854;7.944;2023-05-07T09:47:00;3.50;;;2.50;;
10246;SDS011;5168;47.854;7.944;2023-05-07T09:49:29;3.37;;;2.73;;
10246;SDS011;5168;47.854;7.944;2023-05-07T09:51:55;3.67;;;2.63;;
10246;SDS011;5168;47.854;7.944;2023-05-07T09:54:24;4.03;;;2.70;;
10246;SDS011;5168;47.854;7.944;2023-05-07T09:56:49;3.50;;;2.53;;
10246;SDS011;5168;47.854;7.944;2023-05-07T09:59:17;2.73;;;2.40;;
10246;SDS011;5168;47.854;7.944;2023-05-07T10:01:43;3.57;;;2.33;;
10246;SDS011;5168;47.854;7.944;2023-05-07T10:04:10;2.37;;;2.00;;
10246;SDS011;5168;47.854;7.944;2023-05-07T10:06:36;3.20;;;2.30;;
10246;SDS011;5168;47.854;7.944;2023-05-07T10:09:03;4.53;;;2.30;;
10246;SDS011;5168;47.854;7.944;2023-05-07T10:11:33;2.50;;;2.30;;
10246;SDS011;5168;47.854;7.944;2023-05-07T10:13:59;2.77;;;2.57;;
10246;SDS011;5168;47.854;7.944;2023-05-07T10:16:27;2.67;;;2.30;;
10246;SDS011;5168;47.854;7.944;2023-05-07T10:18:57;3.63;;;2.20;;
10246;SDS011;5168;47.854;7.944;2023-05-07T10:21:23;2.50;;;2.30;;
10246;SDS011;5168;47.854;7.944;2023-05-07T10:23:50;3.93;;;2.30;;
10246;SDS011;5168;47.854;7.944;2023-05-07T10:26:20;2.80;;;2.50;;
10246;SDS011;5168;47.854;7.944;2023-05-07T10:28:50;3.10;;;2.10;;
10246;SDS011;5168;47.854;7.944;2023-05-07T10:34:16;2.70;;;2.50;;
10246;SDS011;5168;47.854;7.944;2023-05-07T10:36:49;4.23;;;2.30;;
10246;SDS011;5168;47.854;7.944;2023-05-07T10:39:15;2.70;;;2.50;;
10246;SDS011;5168;47.854;7.944;2023-05-07T10:41:41;2.00;;;1.80;;
10246;SDS011;5168;47.854;7.944;2023-05-07T10:44:06;2.60;;;2.20;;
10246;SDS011;5168;47.854;7.944;2023-05-07T10:46:32;2.50;;;2.30;;
10246;SDS011;5168;47.854;7.944;2023-05-07T10:51:27;3.87;;;2.73;;
10246;SDS011;5168;47.854;7.944;2023-05-07T10:54:17;5.90;;;3.07;;
10246;SDS011;5168;47.854;7.944;2023-05-07T10:56:45;3.93;;;3.20;;
10246;SDS011;5168;47.854;7.944;2023-05-07T11:01:58;3.33;;;2.50;;
10246;SDS011;5168;47.854;7.944;2023-05-07T11:04:29;3.83;;;3.00;;
10246;SDS011;5168;47.854;7.944;2023-05-07T11:15:04;4.17;;;2.70;;
10246;SDS011;5168;47.854;7.944;2023-05-07T11:17:34;3.50;;;2.20;;
10246;SDS011;5168;47.854;7.944;2023-05-07T11:20:17;2.77;;;2.57;;
10246;SDS011;5168;47.854;7.944;2023-05-07T11:22:43;2.87;;;2.40;;
10246;SDS011;5168;47.854;7.944;2023-05-07T11:25:09;3.63;;;2.60;;
10246;SDS011;5168;47.854;7.944;2023-05-07T11:27:35;2.53;;;2.33;;
10246;SDS011;5168;47.854;7.944;2023-05-07T11:30:01;5.40;;;2.53;;
10246;SDS011;5168;47.854;7.944;2023-05-07T11:32:28;3.53;;;2.53;;
10246;SDS011;5168;47.854;7.944;2023-05-07T11:34:55;3.50;;;2.47;;
10246;SDS011;5168;47.854;7.944;2023-05-07T11:37:24;2.97;;;2.27;;
10246;SDS011;5168;47.854;7.944;2023-05-07T11:39:51;2.87;;;2.40;;
10246;SDS011;5168;47.854;7.944;2023-05-07T11:42:36;3.80;;;2.30;;
10246;SDS011;5168;47.854;7.944;2023-05-07T11:45:03;3.13;;;2.20;;
10246;SDS011;5168;47.854;7.944;2023-05-07T11:47:30;3.50;;;2.23;;
10246;SDS011;5168;47.854;7.944;2023-05-07T11:49:56;2.90;;;2.60;;
10246;SDS011;5168;47.854;7.944;2023-05-07T11:52:26;3.83;;;2.60;;
10246;SDS011;5168;47.854;7.944;2023-05-07T11:54:52;6.50;;;3.10;;
10246;SDS011;5168;47.854;7.944;2023-05-07T11:57:20;4.27;;;2.50;;
10246;SDS011;5168;47.854;7.944;2023-05-07T11:59:46;3.00;;;2.80;;
10246;SDS011;5168;47.854;7.944;2023-05-07T12:02:16;5.77;;;2.80;;
10246;SDS011;5168;47.854;7.944;2023-05-07T12:04:43;4.80;;;2.60;;
10246;SDS011;5168;47.854;7.944;2023-05-07T12:07:12;4.60;;;2.70;;
10246;SDS011;5168;47.854;7.944;2023-05-07T12:09:41;2.40;;;2.20;;
10246;SDS011;5168;47.854;7.944;2023-05-07T12:12:08;2.97;;;2.60;;
10246;SDS011;5168;47.854;7.944;2023-05-07T12:14:40;2.70;;;2.50;;
10246;SDS011;5168;47.854;7.944;2023-05-07T12:17:10;4.03;;;2.87;;
10246;SDS011;5168;47.854;7.944;2023-05-07T12:19:37;2.53;;;2.33;;
10246;SDS011;5168;47.854;7.944;2023-05-07T12:22:04;4.30;;;1.80;;
10246;SDS011;5168;47.854;7.944;2023-05-07T12:24:46;2.03;;;1.87;;
10246;SDS011;5168;47.854;7.944;2023-05-07T12:27:21;1.70;;;1.60;;
10246;SDS011;5168;47.854;7.944;2023-05-07T12:29:48;2.10;;;1.90;;
10246;SDS011;5168;47.854;7.944;2023-05-07T12:32:18;2.00;;;1.87;;
10246;SDS011;5168;47.854;7.944;2023-05-07T12:34:46;2.30;;;2.10;;
10246;SDS011;5168;47.854;7.944;2023-05-07T12:37:14;2.47;;;2.17;;
10246;SDS011;5168;47.854;7.944;2023-05-07T12:39:49;2.93;;;2.20;;
10246;SDS011;5168;47.854;7.944;2023-05-07T12:42:32;2.90;;;2.33;;
10246;SDS011;5168;47.854;7.944;2023-05-07T12:45:06;2.37;;;2.17;;
10246;SDS011;5168;47.854;7.944;2023-05-07T12:47:43;2.83;;;2.53;;
10246;SDS011;5168;47.854;7.944;2023-05-07T12:50:09;3.60;;;3.00;;
10246;SDS011;5168;47.854;7.944;2023-05-07T12:52:36;4.97;;;2.90;;
10246;SDS011;5168;47.854;7.944;2023-05-07T12:55:05;3.60;;;2.87;;
10246;SDS011;5168;47.854;7.944;2023-05-07T12:57:42;3.17;;;2.83;;
10246;SDS011;5168;47.854;7.944;2023-05-07T13:00:10;3.13;;;2.50;;
10246;SDS011;5168;47.854;7.944;2023-05-07T13:02:39;4.37;;;3.07;;
10246;SDS011;5168;47.854;7.944;2023-05-07T13:05:06;5.13;;;3.10;;
10246;SDS011;5168;47.854;7.944;2023-05-07T13:07:34;6.07;;;3.20;;
10246;SDS011;5168;47.854;7.944;2023-05-07T13:09:59;4.80;;;3.57;;
10246;SDS011;5168;47.854;7.944;2023-05-07T13:12:25;5.27;;;3.20;;
10246;SDS011;5168;47.854;7.944;2023-05-07T13:14:51;3.87;;;3.17;;
10246;SDS011;5168;47.854;7.944;2023-05-07T13:17:19;3.33;;;2.70;;
10246;SDS011;5168;47.854;7.944;2023-05-07T13:19:45;3.30;;;2.60;;
10246;SDS011;5168;47.854;7.944;2023-05-07T13:22:11;3.53;;;3.03;;
10246;SDS011;5168;47.854;7.944;2023-05-07T13:24:37;2.63;;;2.30;;
10246;SDS011;5168;47.854;7.944;2023-05-07T13:27:02;3.10;;;2.57;;
10246;SDS011;5168;47.854;7.944;2023-05-07T13:29:28;3.97;;;2.60;;
10246;SDS011;5168;47.854;7.944;2023-05-07T13:31:58;3.23;;;2.50;;
10246;SDS011;5168;47.854;7.944;2023-05-07T13:34:24;3.10;;;2.30;;
10246;SDS011;5168;47.854;7.944;2023-05-07T13:36:50;2.77;;;2.20;;
10246;SDS011;5168;47.854;7.944;2023-05-07T13:39:15;3.47;;;2.53;;
10246;SDS011;5168;47.854;7.944;2023-05-07T13:41:42;2.60;;;2.40;;
10246;SDS011;5168;47.854;7.944;2023-05-07T13:44:07;2.77;;;2.40;;
10246;SDS011;5168;47.854;7.944;2023-05-07T13:46:33;5.50;;;2.50;;
10246;SDS011;5168;47.854;7.944;2023-05-07T13:48:58;2.40;;;2.20;;
10246;SDS011;5168;47.854;7.944;2023-05-07T13:51:24;2.00;;;1.90;;
10246;SDS011;5168;47.854;7.944;2023-05-07T13:53:50;2.50;;;1.93;;
10246;SDS011;5168;47.854;7.944;2023-05-07T13:56:17;2.00;;;1.90;;
10246;SDS011;5168;47.854;7.944;2023-05-07T13:58:43;2.20;;;2.00;;
10246;SDS011;5168;47.854;7.944;2023-05-07T14:01:08;2.20;;;2.10;;
10246;SDS011;5168;47.854;7.944;2023-05-07T14:03:34;2.43;;;2.00;;
10246;SDS011;5168;47.854;7.944;2023-05-07T14:06:02;2.50;;;1.60;;
10246;SDS011;5168;47.854;7.944;2023-05-07T14:08:28;2.73;;;2.00;;
10246;SDS011;5168;47.854;7.944;2023-05-07T14:10:53;1.80;;;1.70;;
10246;SDS011;5168;47.854;7.944;2023-05-07T14:13:19;2.30;;;1.83;;
10246;SDS011;5168;47.854;7.944;2023-05-07T14:15:45;3.20;;;1.80;;
10246;SDS011;5168;47.854;7.944;2023-05-07T14:18:14;1.60;;;1.50;;
10246;SDS011;5168;47.854;7.944;2023-05-07T14:20:40;1.80;;;1.70;;
10246;SDS011;5168;47.854;7.944;2023-05-07T14:23:08;2.53;;;1.70;;
10246;SDS011;5168;47.854;7.944;2023-05-07T14:25:33;1.93;;;1.60;;
10246;SDS011;5168;47.854;7.944;2023-05-07T14:27:59;3.60;;;1.77;;
10246;SDS011;5168;47.854;7.944;2023-05-07T14:30:25;1.97;;;1.73;;
10246;SDS011;5168;47.854;7.944;2023-05-07T14:32:50;2.00;;;1.80;;
10246;SDS011;5168;47.854;7.944;2023-05-07T14:35:16;1.60;;;1.50;;
10246;SDS011;5168;47.854;7.944;2023-05-07T14:37:42;1.73;;;1.63;;
10246;SDS011;5168;47.854;7.944;2023-05-07T14:40:08;2.60;;;1.67;;
10246;SDS011;5168;47.854;7.944;2023-05-07T14:42:34;1.70;;;1.60;;
10246;SDS011;5168;47.854;7.944;2023-05-07T14:45:00;1.70;;;1.60;;
10246;SDS011;5168;47.854;7.944;2023-05-07T14:47:25;1.80;;;1.70;;
10246;SDS011;5168;47.854;7.944;2023-05-07T14:49:51;2.13;;;1.93;;
10246;SDS011;5168;47.854;7.944;2023-05-07T14:52:18;3.20;;;2.17;;
10246;SDS011;5168;47.854;7.944;2023-05-07T14:54:43;2.27;;;1.90;;
10246;SDS011;5168;47.854;7.944;2023-05-07T14:57:09;2.30;;;2.10;;
10246;SDS011;5168;47.854;7.944;2023-05-07T14:59:38;1.97;;;1.80;;
10246;SDS011;5168;47.854;7.944;2023-05-07T15:02:04;2.27;;;2.07;;
10246;SDS011;5168;47.854;7.944;2023-05-07T15:04:32;2.00;;;1.80;;
10246;SDS011;5168;47.854;7.944;2023-05-07T15:06:58;2.37;;;2.17;;
10246;SDS011;5168;47.854;7.944;2023-05-07T15:09:24;2.73;;;2.47;;
10246;SDS011;5168;47.854;7.944;2023-05-07T15:11:49;4.13;;;2.60;;
10246;SDS011;5168;47.854;7.944;2023-05-07T15:14:15;2.83;;;2.60;;